createdAt,value
2017-11-17T04:39:07.480Z,8.80
2017-11-17T04:41:39.357Z,8.70
2017-11-17T04:44:11.240Z,8.70
2017-11-17T04:46:43.116Z,8.70
2017-11-17T04:49:15.802Z,8.70
2017-11-17T04:51:48.432Z,8.60
2017-11-17T04:54:20.661Z,8.60
2017-11-17T04:56:52.540Z,8.60
2017-11-17T04:59:24.443Z,8.60
2017-11-17T05:01:56.317Z,8.60
2017-11-17T05:04:28.972Z,8.60
2017-11-17T05:07:01.808Z,8.50
2017-11-17T05:09:33.754Z,8.50
2017-11-17T05:12:06.399Z,8.40
2017-11-17T05:14:38.281Z,8.40
2017-11-17T05:17:10.928Z,8.30
2017-11-17T05:19:42.813Z,8.30
2017-11-17T05:22:15.446Z,8.30
2017-11-17T05:24:47.357Z,8.30
2017-11-17T05:27:19.991Z,8.20
2017-11-17T05:29:51.876Z,8.20
2017-11-17T05:32:23.754Z,8.20
2017-11-17T05:34:56.435Z,8.20
2017-11-17T05:37:29.079Z,8.20
2017-11-17T05:40:00.997Z,8.20
2017-11-17T05:42:32.869Z,8.20
2017-11-17T05:45:04.785Z,8.20
2017-11-17T05:47:37.429Z,8.20
2017-11-17T05:50:09.309Z,8.20
2017-11-17T05:52:41.215Z,8.20
2017-11-17T05:55:13.110Z,8.20
2017-11-17T05:57:44.986Z,8.30
2017-11-17T06:00:16.889Z,8.30
2017-11-17T06:02:48.758Z,8.30
2017-11-17T06:05:20.649Z,8.30
2017-11-17T06:07:52.520Z,8.30
2017-11-17T06:10:24.433Z,8.30
2017-11-17T06:12:56.305Z,8.30
2017-11-17T06:15:28.192Z,8.30
2017-11-17T06:18:00.065Z,8.30
2017-11-17T06:20:31.954Z,8.30
2017-11-17T06:23:04.592Z,8.30
2017-11-17T06:25:36.489Z,8.30
2017-11-17T06:28:09.122Z,8.30
2017-11-17T06:30:41.038Z,8.30
2017-11-17T06:33:13.673Z,8.30
2017-11-17T06:35:45.578Z,8.20
2017-11-17T06:38:18.223Z,8.30
2017-11-17T06:40:50.128Z,8.20
2017-11-17T06:43:22.006Z,8.30
2017-11-17T06:45:53.914Z,8.30
2017-11-17T06:48:25.781Z,8.30
2017-11-17T06:50:58.453Z,8.30
2017-11-17T06:53:30.325Z,8.30
2017-11-17T06:56:02.980Z,8.30
2017-11-17T06:58:36.462Z,8.30
2017-11-17T07:01:08.357Z,8.30
2017-11-17T07:03:40.994Z,8.30
2017-11-17T07:06:12.889Z,8.30
2017-11-17T07:08:45.081Z,8.30
2017-11-17T07:11:16.984Z,8.30
2017-11-17T07:13:48.849Z,8.30
2017-11-17T07:16:20.754Z,8.30
2017-11-17T07:18:53.385Z,8.40
2017-11-17T07:21:25.308Z,8.30
2017-11-17T07:23:57.179Z,8.40
2017-11-17T07:26:29.105Z,8.40
2017-11-17T07:29:00.966Z,8.40
2017-11-17T07:31:33.641Z,8.40
2017-11-17T07:34:06.284Z,8.30
2017-11-17T07:36:38.191Z,8.30
2017-11-17T07:39:10.827Z,8.30
2017-11-17T07:41:42.720Z,8.20
2017-11-17T07:44:15.357Z,8.20
2017-11-17T07:46:47.260Z,8.20
2017-11-17T07:49:19.897Z,8.10
2017-11-17T07:51:51.802Z,8.10
2017-11-17T07:54:24.430Z,8.00
2017-11-17T07:56:56.325Z,8.00
2017-11-17T07:59:28.964Z,8.00
2017-11-17T08:02:00.841Z,8.00
2017-11-17T08:04:32.709Z,8.00
2017-11-17T08:07:04.612Z,7.90
2017-11-17T08:09:36.484Z,7.90
2017-11-17T08:12:08.369Z,7.90
2017-11-17T08:14:40.256Z,7.90
2017-11-17T08:17:24.096Z,7.90
2017-11-17T08:19:55.969Z,7.90
2017-11-17T08:22:28.616Z,8.00
2017-11-17T08:25:00.485Z,8.00
2017-11-17T08:27:32.387Z,8.10
2017-11-17T08:30:04.253Z,8.20
2017-11-17T08:32:36.141Z,8.30
2017-11-17T08:35:08.020Z,8.40
2017-11-17T08:37:39.929Z,8.40
2017-11-17T08:40:11.807Z,8.50
2017-11-17T08:42:43.709Z,8.50
2017-11-17T08:45:15.581Z,8.60
2017-11-17T08:47:47.493Z,8.60
2017-11-17T08:50:19.366Z,8.60
2017-11-17T08:52:51.273Z,8.60
2017-11-17T08:55:23.910Z,8.40
2017-11-17T08:57:55.825Z,8.40
2017-11-17T09:00:27.701Z,8.40
2017-11-17T09:02:59.620Z,8.50
2017-11-17T09:05:31.508Z,8.60
2017-11-17T09:08:03.404Z,8.60
2017-11-17T09:10:35.273Z,8.70
2017-11-17T09:13:07.218Z,8.80
2017-11-17T09:15:39.089Z,8.80
2017-11-17T09:18:11.001Z,8.90
2017-11-17T09:20:43.635Z,9.10
2017-11-17T09:23:15.520Z,9.10
2017-11-17T09:25:47.392Z,9.10
2017-11-17T09:28:20.062Z,9.10
2017-11-17T09:30:52.702Z,9.10
2017-11-17T09:33:24.608Z,9.10
2017-11-17T09:35:57.246Z,9.20
2017-11-17T09:38:29.129Z,9.20
2017-11-17T09:41:01.007Z,9.20
2017-11-17T09:43:32.937Z,9.10
2017-11-17T09:46:04.821Z,9.10
2017-11-17T09:48:36.730Z,9.10
2017-11-17T09:51:08.599Z,9.00
2017-11-17T09:53:40.499Z,8.90
2017-11-17T09:56:12.372Z,8.80
2017-11-17T09:58:45.026Z,8.80
2017-11-17T10:01:16.893Z,8.70
2017-11-17T10:03:48.798Z,8.70
2017-11-17T10:06:20.668Z,8.80
2017-11-17T10:08:52.574Z,8.80
2017-11-17T10:11:24.495Z,8.90
2017-11-17T10:13:56.477Z,9.00
2017-11-17T10:16:28.355Z,9.00
2017-11-17T10:19:00.242Z,9.00
2017-11-17T10:21:32.883Z,9.00
2017-11-17T10:24:04.886Z,9.00
2017-11-17T10:26:37.058Z,9.00
2017-11-17T10:29:08.969Z,9.00
2017-11-17T10:31:40.842Z,9.00
2017-11-17T10:34:12.749Z,9.00
2017-11-17T10:36:44.632Z,9.00
2017-11-17T10:39:16.522Z,9.00
2017-11-17T10:41:48.392Z,9.00
2017-11-17T10:44:20.279Z,9.00
2017-11-17T10:46:52.145Z,9.10
2017-11-17T10:49:24.058Z,9.10
2017-11-17T10:51:55.930Z,9.10
2017-11-17T10:54:27.835Z,9.20
2017-11-17T10:56:59.726Z,9.20
2017-11-17T10:59:31.641Z,9.30
2017-11-17T11:02:03.522Z,9.20
2017-11-17T11:04:35.417Z,9.20
2017-11-17T11:07:08.268Z,9.20
2017-11-17T11:09:40.160Z,9.30
2017-11-17T11:12:12.064Z,9.30
2017-11-17T11:14:44.755Z,9.30
2017-11-17T11:17:16.625Z,9.30
2017-11-17T11:19:48.529Z,9.30
2017-11-17T11:22:20.413Z,9.30
2017-11-17T11:24:53.093Z,9.30
2017-11-17T11:27:25.729Z,9.40
2017-11-17T11:29:57.630Z,9.30
2017-11-17T11:32:30.269Z,9.30
2017-11-17T11:35:02.168Z,9.30
2017-11-17T11:37:34.804Z,9.40
2017-11-17T11:40:07.032Z,9.40
2017-11-17T11:42:38.913Z,9.40
2017-11-17T11:45:10.797Z,9.40
2017-11-17T11:47:42.677Z,9.50
2017-11-17T11:50:14.602Z,9.50
2017-11-17T11:52:46.497Z,9.50
2017-11-17T11:55:18.404Z,9.50
2017-11-17T11:57:50.274Z,9.40
2017-11-17T12:00:22.189Z,9.40
2017-11-17T12:02:54.833Z,9.50
2017-11-17T12:05:26.733Z,9.50
2017-11-17T12:07:59.381Z,9.60
2017-11-17T12:10:31.288Z,9.60
2017-11-17T12:13:03.157Z,9.70
2017-11-17T12:15:35.040Z,9.70
2017-11-17T12:18:06.917Z,9.80
2017-11-17T12:20:38.822Z,9.80
2017-11-17T12:23:10.694Z,9.90
2017-11-17T12:25:42.620Z,9.80
2017-11-17T12:28:14.513Z,9.80
2017-11-17T12:30:46.399Z,9.80
2017-11-17T12:33:18.289Z,9.70
2017-11-17T12:35:50.197Z,9.80
2017-11-17T12:38:22.077Z,9.80
2017-11-17T12:40:53.971Z,9.80
2017-11-17T12:43:25.847Z,9.80
2017-11-17T12:45:58.749Z,10.00
2017-11-17T12:48:30.638Z,10.00
2017-11-17T12:51:02.550Z,10.10
2017-11-17T12:53:35.193Z,10.10
2017-11-17T12:56:07.101Z,10.10
2017-11-17T12:58:39.737Z,10.00
2017-11-17T13:01:11.641Z,10.00
2017-11-17T13:03:44.288Z,9.90
2017-11-17T13:06:16.237Z,9.90
2017-11-17T13:08:48.109Z,9.90
2017-11-17T13:11:20.010Z,9.90
2017-11-17T13:13:51.873Z,9.80
2017-11-17T13:16:23.779Z,9.90
2017-11-17T13:18:55.641Z,9.90
2017-11-17T13:21:27.545Z,10.00
2017-11-17T13:24:00.177Z,10.00
2017-11-17T13:26:32.098Z,10.00
2017-11-17T13:29:03.969Z,10.00
2017-11-17T13:31:35.878Z,10.00
2017-11-17T13:34:07.752Z,10.00
2017-11-17T13:36:40.407Z,10.00
2017-11-17T13:39:12.273Z,10.00
2017-11-17T13:41:44.185Z,9.90
2017-11-17T13:44:16.057Z,10.00
2017-11-17T13:46:47.933Z,9.90
2017-11-17T13:49:19.804Z,9.90
2017-11-17T13:51:52.014Z,9.90
2017-11-17T13:54:23.898Z,10.00
2017-11-17T13:56:55.800Z,10.00
2017-11-17T13:59:28.460Z,10.00
2017-11-17T14:02:00.386Z,10.00
2017-11-17T14:04:32.260Z,10.00
2017-11-17T14:07:04.166Z,10.00
2017-11-17T14:09:36.041Z,9.90
2017-11-17T14:12:08.697Z,9.80
2017-11-17T14:14:40.599Z,9.80
2017-11-17T14:17:12.505Z,9.80
2017-11-17T14:19:44.372Z,9.70
2017-11-17T14:22:16.260Z,9.70
2017-11-17T14:24:48.915Z,9.60
2017-11-17T14:27:20.815Z,9.60
2017-11-17T14:29:53.441Z,9.50
2017-11-17T14:32:25.346Z,9.50
2017-11-17T14:34:57.996Z,9.50
2017-11-17T14:37:29.927Z,9.50
2017-11-17T14:40:01.780Z,9.40
2017-11-17T14:42:33.672Z,9.40
2017-11-17T14:45:05.537Z,9.30
2017-11-17T14:47:37.440Z,9.30
2017-11-17T14:50:09.312Z,9.30
2017-11-17T14:52:41.213Z,9.20
2017-11-17T14:55:13.088Z,9.10
2017-11-17T14:57:45.760Z,9.00
2017-11-17T15:00:17.625Z,9.00
2017-11-17T15:02:49.509Z,9.00
2017-11-17T15:05:21.380Z,8.90
2017-11-17T15:07:53.294Z,8.90
2017-11-17T15:10:25.158Z,8.80
2017-11-17T15:12:57.060Z,8.70
2017-11-17T15:15:28.951Z,8.70
2017-11-17T15:18:00.850Z,8.60
2017-11-17T15:20:32.726Z,8.60
2017-11-17T15:23:05.392Z,8.50
2017-11-17T15:25:38.033Z,8.40
2017-11-17T15:28:09.935Z,8.40
2017-11-17T15:30:42.569Z,8.30
2017-11-17T15:33:14.473Z,8.30
2017-11-17T15:35:47.113Z,8.20
2017-11-17T15:38:19.765Z,8.10
2017-11-17T15:40:51.647Z,8.10
2017-11-17T15:43:23.544Z,8.10
2017-11-17T15:45:56.184Z,8.00
2017-11-17T15:48:28.089Z,7.90
2017-11-17T15:51:00.729Z,7.90
2017-11-17T15:53:32.609Z,7.80
2017-11-17T15:56:04.481Z,7.80
2017-11-17T15:58:37.194Z,7.70
2017-11-17T16:01:09.348Z,7.70
2017-11-17T16:03:41.252Z,7.70
2017-11-17T16:06:13.121Z,7.60
2017-11-17T16:08:45.025Z,7.50
2017-11-17T16:11:16.896Z,7.50
2017-11-17T16:13:48.769Z,7.40
2017-11-17T16:16:20.636Z,7.40
2017-11-17T16:18:52.549Z,7.30
2017-11-17T16:21:25.188Z,7.20
2017-11-17T16:23:57.074Z,7.20
2017-11-17T16:26:28.949Z,7.20
2017-11-17T16:29:01.606Z,7.10
2017-11-17T16:31:33.484Z,7.00
2017-11-17T16:34:06.144Z,7.00
2017-11-17T16:36:38.026Z,7.00
2017-11-17T16:39:10.697Z,6.90
2017-11-17T16:41:43.328Z,6.90
2017-11-17T16:44:15.232Z,6.90
2017-11-17T16:46:47.100Z,6.90
2017-11-17T16:49:19.778Z,6.80
2017-11-17T16:51:52.404Z,6.80
2017-11-17T16:54:24.304Z,6.70
2017-11-17T16:56:56.181Z,6.70
2017-11-17T16:59:28.901Z,6.60
2017-11-17T17:02:00.785Z,6.60
2017-11-17T17:04:32.689Z,6.60
2017-11-17T17:07:05.333Z,6.50
2017-11-17T17:09:37.233Z,6.50
2017-11-17T17:12:09.872Z,6.50
2017-11-17T17:14:41.768Z,6.50
2017-11-17T17:17:13.692Z,6.40
2017-11-17T17:19:45.598Z,6.40
2017-11-17T17:22:17.477Z,6.30
2017-11-17T17:24:49.381Z,6.30
2017-11-17T17:27:21.244Z,6.30
2017-11-17T17:29:53.159Z,6.20
2017-11-17T17:32:25.077Z,6.10
2017-11-17T17:34:57.724Z,6.10
2017-11-17T17:37:29.593Z,6.00
2017-11-17T17:40:01.482Z,6.10
2017-11-17T17:42:34.118Z,6.00
2017-11-17T17:45:06.005Z,6.00
2017-11-17T17:47:37.875Z,6.00
2017-11-17T17:50:09.794Z,6.00
2017-11-17T17:52:41.666Z,6.00
2017-11-17T17:55:13.566Z,6.00
2017-11-17T17:57:46.207Z,5.90
2017-11-17T18:00:18.107Z,5.90
2017-11-17T18:02:49.979Z,5.90
2017-11-17T18:05:21.888Z,5.80
2017-11-17T18:07:53.761Z,5.80
2017-11-17T18:10:25.672Z,5.80
2017-11-17T18:12:57.552Z,5.80
2017-11-17T18:15:29.440Z,5.70
2017-11-17T18:18:01.310Z,5.70
2017-11-17T18:20:33.981Z,5.70
2017-11-17T18:23:05.850Z,5.60
2017-11-17T18:25:38.522Z,5.60
2017-11-17T18:28:10.435Z,5.50
2017-11-17T18:30:43.074Z,5.50
2017-11-17T18:33:15.713Z,5.50
2017-11-17T18:35:47.600Z,5.50
2017-11-17T18:38:20.255Z,5.50
2017-11-17T18:40:52.140Z,5.50
2017-11-17T18:43:24.009Z,5.50
2017-11-17T18:45:56.681Z,5.50
2017-11-17T18:48:28.587Z,5.40
2017-11-17T18:51:01.230Z,5.50
2017-11-17T18:53:33.873Z,5.50
2017-11-17T18:56:05.784Z,5.50
2017-11-17T18:58:37.656Z,5.50
2017-11-17T19:01:09.570Z,5.50
2017-11-17T19:03:41.426Z,5.50
2017-11-17T19:06:13.309Z,5.50
2017-11-17T19:08:45.944Z,5.50
2017-11-17T19:11:18.618Z,5.50
2017-11-17T19:13:50.527Z,5.50
2017-11-17T19:16:22.396Z,5.50
2017-11-17T19:18:56.327Z,5.40
2017-11-17T19:21:28.252Z,5.40
2017-11-17T19:24:00.888Z,5.30
2017-11-17T19:26:32.785Z,5.40
2017-11-17T19:29:05.421Z,5.30
2017-11-17T19:31:37.331Z,5.30
2017-11-17T19:34:09.957Z,5.30
2017-11-17T19:36:41.873Z,5.30
2017-11-17T19:39:14.514Z,5.20
2017-11-17T19:41:46.426Z,5.20
2017-11-17T19:44:18.297Z,5.20
2017-11-17T19:46:50.195Z,5.20
2017-11-17T19:49:22.082Z,5.10
2017-11-17T19:51:54.758Z,5.10
2017-11-17T19:54:26.629Z,5.10
2017-11-17T19:56:59.284Z,5.10
2017-11-17T19:59:31.164Z,5.00
2017-11-17T20:02:03.838Z,5.00
2017-11-17T20:04:36.636Z,5.00
2017-11-17T20:07:08.546Z,4.90
2017-11-17T20:09:40.416Z,4.90
2017-11-17T20:12:12.320Z,4.90
2017-11-17T20:14:44.212Z,4.90
2017-11-17T20:17:16.121Z,4.90
2017-11-17T20:19:48.762Z,4.90
2017-11-17T20:22:20.677Z,4.90
2017-11-17T20:24:52.552Z,4.90
2017-11-17T20:27:24.449Z,4.90
2017-11-17T20:29:56.320Z,4.90
2017-11-17T20:32:28.216Z,4.90
2017-11-17T20:35:00.137Z,4.90
2017-11-17T20:37:32.049Z,4.90
2017-11-17T20:40:03.930Z,5.00
2017-11-17T20:42:35.830Z,5.00
2017-11-17T20:45:07.694Z,5.00
2017-11-17T20:47:39.610Z,5.00
2017-11-17T20:50:11.476Z,5.00
2017-11-17T20:52:43.372Z,5.00
2017-11-17T20:55:15.237Z,5.00
2017-11-17T20:57:47.893Z,5.00
2017-11-17T21:00:19.772Z,4.90
2017-11-17T21:02:51.707Z,5.00
2017-11-17T21:05:23.588Z,5.00
2017-11-17T21:07:55.456Z,5.00
2017-11-17T21:10:28.097Z,4.90
2017-11-17T21:13:00.002Z,4.90
2017-11-17T21:15:32.646Z,4.80
2017-11-17T21:18:04.535Z,4.80
2017-11-17T21:20:36.400Z,4.80
2017-11-17T21:23:09.073Z,4.60
2017-11-17T21:25:41.721Z,4.60
2017-11-17T21:28:13.757Z,4.60
2017-11-17T21:30:45.638Z,4.50
2017-11-17T21:33:17.539Z,4.40
2017-11-17T21:35:50.202Z,4.30
2017-11-17T21:38:22.101Z,4.30
2017-11-17T21:40:53.970Z,4.30
2017-11-17T21:43:25.886Z,4.30
2017-11-17T21:45:57.752Z,4.30
2017-11-17T21:48:30.445Z,4.30
2017-11-17T21:51:03.076Z,4.30
2017-11-17T21:53:34.952Z,4.20
2017-11-17T21:56:06.830Z,4.30
2017-11-17T21:58:38.737Z,4.20
2017-11-17T22:01:10.609Z,4.20
2017-11-17T22:03:42.512Z,4.20
